sensor_id;sensor_type;location;lat;lon;timestamp;pressure;altitude;pressure_sealevel;temperature;humidity
21203;BME280;10759;51.982;9.232;2023-06-24T00:00:23;101199.91;;;15.20;100.00
21203;BME280;10759;51.982;9.232;2023-06-24T00:02:51;101231.19;;;15.26;100.00
21203;BME280;10759;51.982;9.232;2023-06-24T00:05:20;101211.66;;;15.19;100.00
21203;BME280;10759;51.982;9.232;2023-06-24T00:07:48;101151.00;;;14.87;100.00
21203;BME280;10759;51.982;9.232;2023-06-24T00:10:16;101216.78;;;15.25;100.00
21203;BME280;10759;51.982;9.232;2023-06-24T00:12:45;101224.69;;;15.10;100.00
21203;BME280;10759;51.982;9.232;2023-06-24T00:15:14;101194.75;;;14.94;100.00
21203;BME280;10759;51.982;9.232;2023-06-24T00:17:42;101233.31;;;15.18;100.00
21203;BME280;10759;51.982;9.232;2023-06-24T00:20:11;100971.09;;;13.63;100.00
21203;BME280;10759;51.982;9.232;2023-06-24T00:22:41;101231.91;;;15.09;100.00
21203;BME280;10759;51.982;9.232;2023-06-24T00:25:15;101213.59;;;14.95;100.00
21203;BME280;10759;51.982;9.232;2023-06-24T00:27:45;101228.53;;;15.04;100.00
21203;BME280;10759;51.982;9.232;2023-06-24T00:30:15;101228.63;;;15.01;100.00
21203;BME280;10759;51.982;9.232;2023-06-24T00:32:43;101230.28;;;15.05;100.00
21203;BME280;10759;51.982;9.232;2023-06-24T00:35:11;101227.84;;;14.99;100.00
21203;BME280;10759;51.982;9.232;2023-06-24T00:37:40;101228.88;;;14.96;100.00
21203;BME280;10759;51.982;9.232;2023-06-24T00:40:09;101225.69;;;14.87;100.00
21203;BME280;10759;51.982;9.232;2023-06-24T00:42:44;101229.56;;;14.79;100.00
21203;BME280;10759;51.982;9.232;2023-06-24T00:45:13;101235.72;;;14.83;100.00
21203;BME280;10759;51.982;9.232;2023-06-24T00:47:44;101232.94;;;14.85;100.00
21203;BME280;10759;51.982;9.232;2023-06-24T00:50:14;101230.31;;;14.83;100.00
21203;BME280;10759;51.982;9.232;2023-06-24T00:52:42;101237.94;;;14.94;100.00
21203;BME280;10759;51.982;9.232;2023-06-24T00:55:11;101237.50;;;15.05;100.00
21203;BME280;10759;51.982;9.232;2023-06-24T00:57:41;101156.91;;;14.53;100.00
21203;BME280;10759;51.982;9.232;2023-06-24T01:00:11;101218.00;;;14.76;100.00
21203;BME280;10759;51.982;9.232;2023-06-24T01:02:41;101169.13;;;14.39;100.00
21203;BME280;10759;51.982;9.232;2023-06-24T01:05:11;101148.34;;;14.21;100.00
21203;BME280;10759;51.982;9.232;2023-06-24T01:07:42;101226.75;;;14.60;100.00
21203;BME280;10759;51.982;9.232;2023-06-24T01:10:12;101215.19;;;14.57;100.00
21203;BME280;10759;51.982;9.232;2023-06-24T01:12:41;101228.97;;;14.49;100.00
21203;BME280;10759;51.982;9.232;2023-06-24T01:15:11;101190.34;;;14.27;100.00
21203;BME280;10759;51.982;9.232;2023-06-24T01:17:43;101198.56;;;14.46;100.00
21203;BME280;10759;51.982;9.232;2023-06-24T01:20:18;101230.78;;;14.49;100.00
21203;BME280;10759;51.982;9.232;2023-06-24T01:26:33;101234.44;;;14.48;100.00
21203;BME280;10759;51.982;9.232;2023-06-24T01:29:34;101242.22;;;14.33;100.00
21203;BME280;10759;51.982;9.232;2023-06-24T01:32:18;101241.06;;;14.39;100.00
21203;BME280;10759;51.982;9.232;2023-06-24T01:34:55;101223.88;;;14.20;100.00
21203;BME280;10759;51.982;9.232;2023-06-24T01:37:27;101243.22;;;14.31;100.00
21203;BME280;10759;51.982;9.232;2023-06-24T01:40:01;101241.22;;;14.36;100.00
21203;BME280;10759;51.982;9.232;2023-06-24T01:42:39;101228.22;;;14.24;100.00
21203;BME280;10759;51.982;9.232;2023-06-24T01:45:12;101187.63;;;14.05;100.00
21203;BME280;10759;51.982;9.232;2023-06-24T01:47:45;101246.59;;;14.36;100.00
21203;BME280;10759;51.982;9.232;2023-06-24T01:50:17;101244.22;;;14.28;100.00
21203;BME280;10759;51.982;9.232;2023-06-24T01:52:50;101249.47;;;14.31;100.00
21203;BME280;10759;51.982;9.232;2023-06-24T01:55:21;101247.81;;;14.27;100.00
21203;BME280;10759;51.982;9.232;2023-06-24T01:57:50;101251.53;;;14.25;100.00
21203;BME280;10759;51.982;9.232;2023-06-24T02:00:20;101231.63;;;14.05;100.00
21203;BME280;10759;51.982;9.232;2023-06-24T02:02:51;101238.72;;;14.08;100.00
21203;BME280;10759;51.982;9.232;2023-06-24T02:05:21;101254.66;;;14.14;100.00
21203;BME280;10759;51.982;9.232;2023-06-24T02:07:52;101259.34;;;14.09;100.00
21203;BME280;10759;51.982;9.232;2023-06-24T02:10:21;101262.22;;;14.04;100.00
21203;BME280;10759;51.982;9.232;2023-06-24T02:12:50;101258.78;;;14.01;100.00
21203;BME280;10759;51.982;9.232;2023-06-24T02:15:19;101258.78;;;14.01;100.00
21203;BME280;10759;51.982;9.232;2023-06-24T02:17:51;101257.25;;;13.93;100.00
21203;BME280;10759;51.982;9.232;2023-06-24T02:20:25;101256.41;;;13.91;100.00
21203;BME280;10759;51.982;9.232;2023-06-24T02:22:55;101252.78;;;13.92;100.00
21203;BME280;10759;51.982;9.232;2023-06-24T02:25:24;101215.25;;;13.64;100.00
21203;BME280;10759;51.982;9.232;2023-06-24T02:27:53;101247.75;;;13.83;100.00
21203;BME280;10759;51.982;9.232;2023-06-24T02:30:23;101219.50;;;13.70;100.00
21203;BME280;10759;51.982;9.232;2023-06-24T02:32:53;101260.97;;;13.89;100.00
21203;BME280;10759;51.982;9.232;2023-06-24T02:35:21;101247.84;;;13.80;100.00
21203;BME280;10759;51.982;9.232;2023-06-24T02:37:49;101246.41;;;13.71;100.00
21203;BME280;10759;51.982;9.232;2023-06-24T02:40:18;101173.34;;;13.32;100.00
21203;BME280;10759;51.982;9.232;2023-06-24T02:42:46;101257.25;;;13.93;100.00
21203;BME280;10759;51.982;9.232;2023-06-24T02:45:15;101252.50;;;13.77;100.00
21203;BME280;10759;51.982;9.232;2023-06-24T02:47:45;101237.63;;;13.66;100.00
21203;BME280;10759;51.982;9.232;2023-06-24T02:50:16;101255.75;;;13.85;100.00
21203;BME280;10759;51.982;9.232;2023-06-24T02:52:45;101262.31;;;13.78;100.00
21203;BME280;10759;51.982;9.232;2023-06-24T02:55:16;101266.94;;;13.74;100.00
21203;BME280;10759;51.982;9.232;2023-06-24T02:57:59;101269.78;;;13.71;100.00
21203;BME280;10759;51.982;9.232;2023-06-24T03:00:43;101268.78;;;13.73;100.00
21203;BME280;10759;51.982;9.232;2023-06-24T03:03:25;101117.72;;;12.82;100.00
21203;BME280;10759;51.982;9.232;2023-06-24T03:05:57;101278.56;;;13.76;100.00
21203;BME280;10759;51.982;9.232;2023-06-24T03:08:29;101280.41;;;13.74;100.00
21203;BME280;10759;51.982;9.232;2023-06-24T03:10:57;101287.56;;;13.75;100.00
21203;BME280;10759;51.982;9.232;2023-06-24T03:13:29;101285.16;;;13.67;100.00
21203;BME280;10759;51.982;9.232;2023-06-24T03:16:07;101136.72;;;12.78;100.00
21203;BME280;10759;51.982;9.232;2023-06-24T03:18:46;101277.09;;;13.66;100.00
21203;BME280;10759;51.982;9.232;2023-06-24T03:21:17;101260.75;;;13.47;100.00
21203;BME280;10759;51.982;9.232;2023-06-24T03:23:45;101238.03;;;13.29;100.00
21203;BME280;10759;51.982;9.232;2023-06-24T03:26:15;101276.84;;;13.48;100.00
21203;BME280;10759;51.982;9.232;2023-06-24T03:28:43;101231.91;;;13.24;100.00
21203;BME280;10759;51.982;9.232;2023-06-24T03:31:15;101277.34;;;13.60;100.00
21203;BME280;10759;51.982;9.232;2023-06-24T03:33:44;101283.50;;;13.63;100.00
21203;BME280;10759;51.982;9.232;2023-06-24T03:36:16;101286.13;;;13.65;100.00
21203;BME280;10759;51.982;9.232;2023-06-24T03:38:44;101295.03;;;13.67;100.00
21203;BME280;10759;51.982;9.232;2023-06-24T03:41:12;101279.28;;;13.56;100.00
21203;BME280;10759;51.982;9.232;2023-06-24T03:43:40;101298.66;;;13.66;100.00
21203;BME280;10759;51.982;9.232;2023-06-24T03:46:12;101292.22;;;13.70;100.00
21203;BME280;10759;51.982;9.232;2023-06-24T03:48:40;101292.72;;;13.81;100.00
21203;BME280;10759;51.982;9.232;2023-06-24T03:51:08;101289.91;;;13.84;100.00
21203;BME280;10759;51.982;9.232;2023-06-24T03:53:38;101287.56;;;13.75;100.00
21203;BME280;10759;51.982;9.232;2023-06-24T03:56:06;101293.47;;;13.85;100.00
21203;BME280;10759;51.982;9.232;2023-06-24T03:58:34;101293.28;;;13.91;100.00
21203;BME280;10759;51.982;9.232;2023-06-24T04:01:03;101290.41;;;13.95;100.00
21203;BME280;10759;51.982;9.232;2023-06-24T04:03:31;101291.91;;;14.03;100.00
21203;BME280;10759;51.982;9.232;2023-06-24T04:06:00;101291.81;;;14.06;100.00
21203;BME280;10759;51.982;9.232;2023-06-24T04:08:29;101296.09;;;14.11;100.00
21203;BME280;10759;51.982;9.232;2023-06-24T04:10:58;101273.81;;;14.06;100.00
21203;BME280;10759;51.982;9.232;2023-06-24T04:13:26;101285.88;;;14.20;100.00
21203;BME280;10759;51.982;9.232;2023-06-24T04:15:54;101280.91;;;14.32;100.00
21203;BME280;10759;51.982;9.232;2023-06-24T04:18:22;101244.34;;;14.25;100.00
21203;BME280;10759;51.982;9.232;2023-06-24T04:20:50;101288.53;;;14.67;100.00
21203;BME280;10759;51.982;9.232;2023-06-24T04:23:19;101215.13;;;14.36;100.00
21203;BME280;10759;51.982;9.232;2023-06-24T04:25:47;101288.28;;;14.95;100.00
21203;BME280;10759;51.982;9.232;2023-06-24T04:28:17;101292.34;;;15.05;100.00
21203;BME280;10759;51.982;9.232;2023-06-24T04:30:45;101189.53;;;14.47;100.00
21203;BME280;10759;51.982;9.232;2023-06-24T04:33:12;101286.31;;;14.98;100.00
21203;BME280;10759;51.982;9.232;2023-06-24T04:35:41;101288.00;;;15.01;100.00
21203;BME280;10759;51.982;9.232;2023-06-24T04:38:10;101276.16;;;15.05;100.00
21203;BME280;10759;51.982;9.232;2023-06-24T04:40:38;101291.38;;;15.69;100.00
21203;BME280;10759;51.982;9.232;2023-06-24T04:43:06;101273.06;;;16.34;100.00
21203;BME280;10759;51.982;9.232;2023-06-24T04:45:36;101292.28;;;17.21;100.00
21203;BME280;10759;51.982;9.232;2023-06-24T04:48:04;101288.44;;;17.60;97.21
21203;BME280;10759;51.982;9.232;2023-06-24T04:50:33;101295.44;;;17.47;93.56
21203;BME280;10759;51.982;9.232;2023-06-24T04:53:01;101287.47;;;17.09;96.20
21203;BME280;10759;51.982;9.232;2023-06-24T04:55:29;101301.81;;;17.11;96.86
21203;BME280;10759;51.982;9.232;2023-06-24T04:57:57;101303.41;;;17.15;96.00
21203;BME280;10759;51.982;9.232;2023-06-24T05:00:26;101310.50;;;17.35;95.38
21203;BME280;10759;51.982;9.232;2023-06-24T05:02:55;101317.13;;;17.47;93.77
21203;BME280;10759;51.982;9.232;2023-06-24T05:05:23;101311.88;;;16.90;96.92
21203;BME280;10759;51.982;9.232;2023-06-24T05:07:51;101314.56;;;17.44;94.93
21203;BME280;10759;51.982;9.232;2023-06-24T05:10:19;101316.94;;;18.02;91.72
21203;BME280;10759;51.982;9.232;2023-06-24T05:12:47;101310.63;;;18.35;89.84
21203;BME280;10759;51.982;9.232;2023-06-24T05:15:15;101306.69;;;18.56;89.77
21203;BME280;10759;51.982;9.232;2023-06-24T05:17:44;101311.78;;;18.47;86.71
21203;BME280;10759;51.982;9.232;2023-06-24T05:20:13;101316.34;;;18.46;88.47
21203;BME280;10759;51.982;9.232;2023-06-24T05:22:41;101312.13;;;18.56;88.69
21203;BME280;10759;51.982;9.232;2023-06-24T05:25:09;101251.41;;;17.76;90.37
21203;BME280;10759;51.982;9.232;2023-06-24T05:27:37;101316.47;;;17.76;93.13
21203;BME280;10759;51.982;9.232;2023-06-24T05:30:06;101288.31;;;17.79;93.45
21203;BME280;10759;51.982;9.232;2023-06-24T05:32:34;101317.84;;;17.68;93.65
21203;BME280;10759;51.982;9.232;2023-06-24T05:35:03;101313.63;;;17.97;93.17
21203;BME280;10759;51.982;9.232;2023-06-24T05:37:32;101292.72;;;17.81;94.08
21203;BME280;10759;51.982;9.232;2023-06-24T05:40:01;101213.16;;;17.14;94.81
21203;BME280;10759;51.982;9.232;2023-06-24T05:42:29;101307.53;;;17.74;96.04
21203;BME280;10759;51.982;9.232;2023-06-24T05:44:58;101319.13;;;17.43;96.59
21203;BME280;10759;51.982;9.232;2023-06-24T05:47:26;101311.34;;;18.05;94.68
21203;BME280;10759;51.982;9.232;2023-06-24T05:49:54;101315.53;;;17.95;92.98
21203;BME280;10759;51.982;9.232;2023-06-24T05:52:22;101316.94;;;18.02;95.04
21203;BME280;10759;51.982;9.232;2023-06-24T05:54:51;101295.13;;;18.37;95.27
21203;BME280;10759;51.982;9.232;2023-06-24T05:57:19;101314.75;;;18.74;91.71
21203;BME280;10759;51.982;9.232;2023-06-24T05:59:47;101311.97;;;18.91;90.04
21203;BME280;10759;51.982;9.232;2023-06-24T06:02:15;101277.09;;;18.67;90.42
21203;BME280;10759;51.982;9.232;2023-06-24T06:04:44;101309.84;;;18.96;90.17
21203;BME280;10759;51.982;9.232;2023-06-24T06:07:11;101305.63;;;18.75;92.65
21203;BME280;10759;51.982;9.232;2023-06-24T06:09:40;101312.84;;;18.92;95.83
21203;BME280;10759;51.982;9.232;2023-06-24T06:12:10;101258.34;;;18.15;93.26
21203;BME280;10759;51.982;9.232;2023-06-24T06:14:38;101307.72;;;18.38;96.28
21203;BME280;10759;51.982;9.232;2023-06-24T06:17:06;101317.31;;;18.61;93.83
21203;BME280;10759;51.982;9.232;2023-06-24T06:19:34;101319.81;;;19.12;91.03
21203;BME280;10759;51.982;9.232;2023-06-24T06:22:02;101315.56;;;19.07;93.60
21203;BME280;10759;51.982;9.232;2023-06-24T06:24:30;101258.00;;;18.85;94.55
21203;BME280;10759;51.982;9.232;2023-06-24T06:26:58;101320.91;;;19.69;93.87
21203;BME280;10759;51.982;9.232;2023-06-24T06:29:28;101323.94;;;19.93;91.54
21203;BME280;10759;51.982;9.232;2023-06-24T06:31:55;101329.28;;;19.50;89.16
21203;BME280;10759;51.982;9.232;2023-06-24T06:34:24;101219.69;;;19.05;92.20
21203;BME280;10759;51.982;9.232;2023-06-24T06:36:52;101325.72;;;19.94;90.59
21203;BME280;10759;51.982;9.232;2023-06-24T06:39:20;101286.06;;;19.90;87.55
21203;BME280;10759;51.982;9.232;2023-06-24T06:41:48;101202.97;;;18.97;89.18
21203;BME280;10759;51.982;9.232;2023-06-24T06:44:16;101309.84;;;19.72;93.91
21203;BME280;10759;51.982;9.232;2023-06-24T06:46:46;101264.31;;;19.90;92.45
21203;BME280;10759;51.982;9.232;2023-06-24T06:49:14;101310.16;;;20.25;89.94
21203;BME280;10759;51.982;9.232;2023-06-24T06:51:42;101318.53;;;20.22;89.67
21203;BME280;10759;51.982;9.232;2023-06-24T06:54:10;101313.78;;;20.26;89.65
21203;BME280;10759;51.982;9.232;2023-06-24T06:56:37;101314.81;;;20.37;91.21
21203;BME280;10759;51.982;9.232;2023-06-24T06:59:06;101320.09;;;20.41;88.85
21203;BME280;10759;51.982;9.232;2023-06-24T07:01:34;101316.34;;;20.85;89.89
21203;BME280;10759;51.982;9.232;2023-06-24T07:04:03;101315.16;;;20.74;86.99
21203;BME280;10759;51.982;9.232;2023-06-24T07:06:31;101315.56;;;20.83;89.11
21203;BME280;10759;51.982;9.232;2023-06-24T07:09:00;101309.72;;;21.29;84.99
21203;BME280;10759;51.982;9.232;2023-06-24T07:11:28;101317.91;;;21.01;86.35
21203;BME280;10759;51.982;9.232;2023-06-24T07:13:56;101314.88;;;21.06;89.51
21203;BME280;10759;51.982;9.232;2023-06-24T07:16:24;101309.59;;;21.17;84.31
21203;BME280;10759;51.982;9.232;2023-06-24T07:18:52;101316.00;;;21.16;84.97
21203;BME280;10759;51.982;9.232;2023-06-24T07:21:21;101307.78;;;21.04;84.73
21203;BME280;10759;51.982;9.232;2023-06-24T07:23:50;101301.91;;;21.37;84.63
21203;BME280;10759;51.982;9.232;2023-06-24T07:26:18;101290.59;;;21.43;82.93
21203;BME280;10759;51.982;9.232;2023-06-24T07:28:46;101302.97;;;22.13;84.34
21203;BME280;10759;51.982;9.232;2023-06-24T07:31:33;101301.28;;;22.48;79.96
21203;BME280;10759;51.982;9.232;2023-06-24T07:34:01;101305.50;;;22.28;78.28
21203;BME280;10759;51.982;9.232;2023-06-24T07:36:30;101263.16;;;22.23;77.87
21203;BME280;10759;51.982;9.232;2023-06-24T07:38:58;101308.81;;;22.58;78.03
21203;BME280;10759;51.982;9.232;2023-06-24T07:41:26;101291.31;;;22.23;75.29
21203;BME280;10759;51.982;9.232;2023-06-24T07:43:54;101301.75;;;22.42;77.75
21203;BME280;10759;51.982;9.232;2023-06-24T07:46:22;101307.78;;;23.08;75.94
21203;BME280;10759;51.982;9.232;2023-06-24T07:48:50;101313.28;;;22.96;73.63
21203;BME280;10759;51.982;9.232;2023-06-24T07:51:18;101314.88;;;22.74;71.66
21203;BME280;10759;51.982;9.232;2023-06-24T07:53:48;101314.38;;;22.93;70.24
21203;BME280;10759;51.982;9.232;2023-06-24T07:56:15;101294.81;;;22.86;72.91
21203;BME280;10759;51.982;9.232;2023-06-24T07:58:43;101311.31;;;22.61;69.93
21203;BME280;10759;51.982;9.232;2023-06-24T08:01:11;101318.50;;;22.62;70.15
21203;BME280;10759;51.982;9.232;2023-06-24T08:03:39;101318.72;;;22.96;70.26
21203;BME280;10759;51.982;9.232;2023-06-24T08:06:07;101279.34;;;22.50;71.51
21203;BME280;10759;51.982;9.232;2023-06-24T08:08:35;101301.25;;;23.22;71.62
21203;BME280;10759;51.982;9.232;2023-06-24T08:11:05;101317.59;;;23.70;69.95
21203;BME280;10759;51.982;9.232;2023-06-24T08:13:32;101319.41;;;23.94;65.23
21203;BME280;10759;51.982;9.232;2023-06-24T08:16:02;101304.88;;;23.23;69.90
21203;BME280;10759;51.982;9.232;2023-06-24T08:18:30;101306.66;;;22.87;69.22
21203;BME280;10759;51.982;9.232;2023-06-24T08:20:58;101288.03;;;23.40;66.83
21203;BME280;10759;51.982;9.232;2023-06-24T08:23:26;101307.19;;;23.75;66.05
21203;BME280;10759;51.982;9.232;2023-06-24T08:25:54;101307.00;;;24.12;66.21
21203;BME280;10759;51.982;9.232;2023-06-24T08:28:39;101284.81;;;24.38;67.30
21203;BME280;10759;51.982;9.232;2023-06-24T08:31:07;101285.56;;;23.84;68.53
21203;BME280;10759;51.982;9.232;2023-06-24T08:33:35;101301.97;;;23.84;69.52
21203;BME280;10759;51.982;9.232;2023-06-24T08:36:03;101287.69;;;24.36;67.13
21203;BME280;10759;51.982;9.232;2023-06-24T08:38:31;101221.13;;;24.25;65.21
21203;BME280;10759;51.982;9.232;2023-06-24T08:40:59;101297.75;;;24.81;64.99
21203;BME280;10759;51.982;9.232;2023-06-24T08:43:27;101279.06;;;24.86;65.52
21203;BME280;10759;51.982;9.232;2023-06-24T08:45:57;101288.47;;;24.93;64.94
21203;BME280;10759;51.982;9.232;2023-06-24T08:48:27;101278.69;;;25.12;64.04
21203;BME280;10759;51.982;9.232;2023-06-24T08:50:58;101258.56;;;25.01;68.46
21203;BME280;10759;51.982;9.232;2023-06-24T08:53:29;101293.66;;;25.07;60.76
21203;BME280;10759;51.982;9.232;2023-06-24T08:55:57;101264.41;;;24.42;62.73
21203;BME280;10759;51.982;9.232;2023-06-24T08:58:26;101278.41;;;24.82;61.17
21203;BME280;10759;51.982;9.232;2023-06-24T09:00:54;101270.84;;;24.75;64.85
21203;BME280;10759;51.982;9.232;2023-06-24T09:03:24;101236.44;;;24.82;57.57
21203;BME280;10759;51.982;9.232;2023-06-24T09:05:52;101277.41;;;25.27;54.84
21203;BME280;10759;51.982;9.232;2023-06-24T09:08:21;101285.50;;;25.49;57.23
21203;BME280;10759;51.982;9.232;2023-06-24T09:10:53;101278.16;;;25.29;53.29
21203;BME280;10759;51.982;9.232;2023-06-24T09:13:27;101284.88;;;25.25;54.19
21203;BME280;10759;51.982;9.232;2023-06-24T09:16:11;101276.69;;;25.14;52.46
21203;BME280;10759;51.982;9.232;2023-06-24T09:18:40;101277.81;;;25.22;53.34
21203;BME280;10759;51.982;9.232;2023-06-24T09:21:10;101280.41;;;25.13;53.38
21203;BME280;10759;51.982;9.232;2023-06-24T09:23:38;101269.97;;;25.18;53.29
21203;BME280;10759;51.982;9.232;2023-06-24T09:26:09;101265.38;;;25.39;56.87
21203;BME280;10759;51.982;9.232;2023-06-24T09:28:38;101213.09;;;24.99;49.99
21203;BME280;10759;51.982;9.232;2023-06-24T09:31:07;101256.00;;;25.21;51.88
21203;BME280;10759;51.982;9.232;2023-06-24T09:33:40;101259.09;;;25.16;53.15
21203;BME280;10759;51.982;9.232;2023-06-24T09:36:11;101259.88;;;25.07;51.27
21203;BME280;10759;51.982;9.232;2023-06-24T09:38:41;101261.22;;;25.13;51.22
21203;BME280;10759;51.982;9.232;2023-06-24T09:41:11;101241.75;;;25.27;58.06
21203;BME280;10759;51.982;9.232;2023-06-24T09:43:41;101260.75;;;25.61;53.02
21203;BME280;10759;51.982;9.232;2023-06-24T09:46:11;101254.75;;;25.88;59.25
21203;BME280;10759;51.982;9.232;2023-06-24T09:48:41;101251.66;;;26.02;51.49
21203;BME280;10759;51.982;9.232;2023-06-24T09:51:11;101257.63;;;25.65;49.86
21203;BME280;10759;51.982;9.232;2023-06-24T09:53:40;101250.59;;;25.52;50.95
21203;BME280;10759;51.982;9.232;2023-06-24T09:56:10;101248.63;;;25.42;51.02
21203;BME280;10759;51.982;9.232;2023-06-24T09:58:43;101223.97;;;25.21;51.17
21203;BME280;10759;51.982;9.232;2023-06-24T10:01:13;101232.53;;;25.28;52.22
21203;BME280;10759;51.982;9.232;2023-06-24T10:03:44;101232.59;;;25.38;49.23
21203;BME280;10759;51.982;9.232;2023-06-24T10:06:13;101251.94;;;25.36;49.39
21203;BME280;10759;51.982;9.232;2023-06-24T10:08:41;101237.22;;;25.58;51.01
21203;BME280;10759;51.982;9.232;2023-06-24T10:11:09;101223.38;;;25.60;51.24
21203;BME280;10759;51.982;9.232;2023-06-24T10:13:37;101238.31;;;25.77;49.53
21203;BME280;10759;51.982;9.232;2023-06-24T10:16:05;101237.00;;;25.71;51.76
21203;BME280;10759;51.982;9.232;2023-06-24T10:18:35;101232.53;;;25.49;49.89
21203;BME280;10759;51.982;9.232;2023-06-24T10:21:05;101239.78;;;25.50;53.16
21203;BME280;10759;51.982;9.232;2023-06-24T10:23:39;101203.41;;;25.58;52.09
21203;BME280;10759;51.982;9.232;2023-06-24T10:26:09;101224.00;;;25.73;52.83
21203;BME280;10759;51.982;9.232;2023-06-24T10:29:11;101220.41;;;25.52;54.70
21203;BME280;10759;51.982;9.232;2023-06-24T10:31:51;101215.53;;;25.55;53.31
21203;BME280;10759;51.982;9.232;2023-06-24T10:34:24;101210.69;;;25.68;59.11
21203;BME280;10759;51.982;9.232;2023-06-24T10:36:55;101091.16;;;25.03;58.65
21203;BME280;10759;51.982;9.232;2023-06-24T10:39:50;101205.69;;;26.04;54.26
21203;BME280;10759;51.982;9.232;2023-06-24T10:42:32;101204.53;;;26.07;56.36
21203;BME280;10759;51.982;9.232;2023-06-24T10:45:02;101206.25;;;26.39;58.41
21203;BME280;10759;51.982;9.232;2023-06-24T10:47:42;101201.31;;;26.42;52.40
21203;BME280;10759;51.982;9.232;2023-06-24T10:50:12;101189.03;;;26.37;54.25
21203;BME280;10759;51.982;9.232;2023-06-24T10:52:43;101163.56;;;26.34;51.06
21203;BME280;10759;51.982;9.232;2023-06-24T10:55:13;101205.59;;;26.66;52.90
21203;BME280;10759;51.982;9.232;2023-06-24T10:57:42;101200.78;;;26.58;51.03
21203;BME280;10759;51.982;9.232;2023-06-24T11:00:12;101193.44;;;26.68;56.51
21203;BME280;10759;51.982;9.232;2023-06-24T11:02:40;101192.47;;;26.29;52.23
21203;BME280;10759;51.982;9.232;2023-06-24T11:05:09;101177.06;;;25.97;51.44
21203;BME280;10759;51.982;9.232;2023-06-24T11:07:38;101187.72;;;25.90;51.75
21203;BME280;10759;51.982;9.232;2023-06-24T11:10:10;101187.00;;;25.67;51.63
21203;BME280;10759;51.982;9.232;2023-06-24T11:12:41;101177.78;;;25.99;52.56
21203;BME280;10759;51.982;9.232;2023-06-24T11:15:10;101167.88;;;26.27;50.08
21203;BME280;10759;51.982;9.232;2023-06-24T11:17:39;101135.78;;;26.28;53.55
21203;BME280;10759;51.982;9.232;2023-06-24T11:20:09;101158.13;;;26.54;50.54
21203;BME280;10759;51.982;9.232;2023-06-24T11:22:37;101181.00;;;26.74;50.05
21203;BME280;10759;51.982;9.232;2023-06-24T11:25:14;101172.88;;;26.53;49.91
21203;BME280;10759;51.982;9.232;2023-06-24T11:27:45;101178.09;;;26.56;48.74
21203;BME280;10759;51.982;9.232;2023-06-24T11:30:13;101123.22;;;26.45;50.60
21203;BME280;10759;51.982;9.232;2023-06-24T11:32:43;101173.06;;;26.90;48.33
21203;BME280;10759;51.982;9.232;2023-06-24T11:35:13;101170.56;;;26.58;48.34
21203;BME280;10759;51.982;9.232;2023-06-24T11:37:43;101165.34;;;26.65;50.20
21203;BME280;10759;51.982;9.232;2023-06-24T11:40:16;101164.31;;;26.46;48.68
21203;BME280;10759;51.982;9.232;2023-06-24T11:42:47;101145.06;;;26.27;47.77
21203;BME280;10759;51.982;9.232;2023-06-24T11:45:20;101158.63;;;26.28;49.28
21203;BME280;10759;51.982;9.232;2023-06-24T11:47:48;101157.13;;;26.05;49.44
21203;BME280;10759;51.982;9.232;2023-06-24T11:50:16;101136.06;;;26.15;50.22
21203;BME280;10759;51.982;9.232;2023-06-24T11:52:46;101154.28;;;26.26;49.61
21203;BME280;10759;51.982;9.232;2023-06-24T11:55:18;101152.28;;;26.38;51.27
21203;BME280;10759;51.982;9.232;2023-06-24T11:57:49;101148.81;;;26.35;47.68
21203;BME280;10759;51.982;9.232;2023-06-24T12:00:19;101143.19;;;26.37;48.07
21203;BME280;10759;51.982;9.232;2023-06-24T12:02:52;101150.34;;;26.79;50.07
21203;BME280;10759;51.982;9.232;2023-06-24T12:05:26;101141.94;;;26.61;47.94
21203;BME280;10759;51.982;9.232;2023-06-24T12:07:59;101129.63;;;26.74;49.73
21203;BME280;10759;51.982;9.232;2023-06-24T12:10:29;101135.84;;;26.76;49.78
21203;BME280;10759;51.982;9.232;2023-06-24T12:12:59;101135.25;;;26.83;52.06
21203;BME280;10759;51.982;9.232;2023-06-24T12:15:28;101130.88;;;27.09;52.92
21203;BME280;10759;51.982;9.232;2023-06-24T12:17:56;101131.31;;;27.14;52.99
21203;BME280;10759;51.982;9.232;2023-06-24T12:20:24;101131.75;;;27.19;47.69
21203;BME280;10759;51.982;9.232;2023-06-24T12:22:57;101133.53;;;27.01;50.31
21203;BME280;10759;51.982;9.232;2023-06-24T12:25:25;101132.22;;;27.05;46.24
21203;BME280;10759;51.982;9.232;2023-06-24T12:27:55;101078.88;;;26.59;46.97
21203;BME280;10759;51.982;9.232;2023-06-24T12:30:23;101121.91;;;27.17;50.27
21203;BME280;10759;51.982;9.232;2023-06-24T12:32:51;101129.75;;;27.22;47.78
21203;BME280;10759;51.982;9.232;2023-06-24T12:35:19;101059.75;;;26.67;49.11
21203;BME280;10759;51.982;9.232;2023-06-24T12:37:47;101111.50;;;27.21;48.23
21203;BME280;10759;51.982;9.232;2023-06-24T12:40:15;101057.41;;;26.92;49.17
21203;BME280;10759;51.982;9.232;2023-06-24T12:42:43;101123.50;;;27.29;45.23
21203;BME280;10759;51.982;9.232;2023-06-24T12:45:13;101113.53;;;27.18;48.04
21203;BME280;10759;51.982;9.232;2023-06-24T12:47:41;101097.19;;;26.97;46.57
21203;BME280;10759;51.982;9.232;2023-06-24T12:50:09;101116.94;;;27.50;48.74
21203;BME280;10759;51.982;9.232;2023-06-24T12:52:38;101115.94;;;27.69;49.43
21203;BME280;10759;51.982;9.232;2023-06-24T12:55:07;101124.59;;;27.46;45.47
21203;BME280;10759;51.982;9.232;2023-06-24T12:57:35;101123.63;;;27.37;46.80
21203;BME280;10759;51.982;9.232;2023-06-24T13:00:04;101121.06;;;26.97;48.56
21203;BME280;10759;51.982;9.232;2023-06-24T13:02:35;101120.75;;;27.10;46.92